الصفحة الرئيسية
METAR-TAF:

METAR-TAF

مطار :

مطار واغادوغو

واغادوغو, بوركينا فاسو

دائرة عرض: 12-21N, خط طول: 001-31W, ارتفاع: 316 متر

مراقبة الطقس الحالي

تاريخ ووقت الإصدار 53 دقيقة قبل الساعة 09:00UTC
ريح 6 عقدة من الشرق
درجة الحرارة 26°درجة مئوية
الرطوبة 17%
ضغط 1017 hPa
الرؤية: 6000 متر

METAR: DFFD 140900Z 08006KT 6000 NSC 26/M01 Q1017 NOSIG

زمن: 09:53 (09:53 UTC)

توقعات

تاريخ ووقت الإصدار 4ساعات و 53 دقيقة قبل الساعة 05:00UTC
التوقعات صالحة من14 الساعة 06 UTC إلى 15 الساعة 12 UTC
ريح 10 عقدة من الشرق/الشمال الشرقي
الرؤية: 8000 متر
مؤقت
من 14 الساعة 06 UTC إلى 14 الساعة 10 UTC
الرؤية: 4000 متر
العجاج
مؤقت
من 14 الساعة 17 UTC إلى 14 الساعة 21 UTC
الرؤية: 4000 متر
العجاج
مؤقت
من 15 الساعة 06 UTC إلى 15 الساعة 10 UTC
الرؤية: 4000 متر
العجاج

TAF: DFFD 140500Z 1406/1512 06010KT 8000 NSC TEMPO 1406/1410 4000 HZ TEMPO 1417/1421 4000 HZ TEMPO 1506/1510 4000 HZ

أرصاد الطقس والتوقعات من أكثر من 4000 مطار (تقارير الطقس للمطار METAR والتنبؤ بالطقس بالمطارTAF).

المحطات المتاحة هي النقط الصفراء والحمراء على الخريطة.

حرك المؤشر فوق النقطة لمعرفة اسم المحطة.

ثم انقر لمعرفة أرصاد وتوقعات الطقس.

لتغيير الخارطة: اضغط على الأزرار الخضراء مع رمز الصليب الأسود للتكبير. على الزر الأخضر مع شرطة للتصغير، أو على الأسهم الخضراء للخرائط المجاورة.


METAR-TAF: